sensor_id;sensor_type;location;lat;lon;timestamp;P1;durP1;ratioP1;P2;durP2;ratioP2
60610;SDS011;46439;51.164;13.572;2023-12-20T00:01:08;4.90;;;3.00;;
60610;SDS011;46439;51.164;13.572;2023-12-20T00:03:36;5.50;;;3.00;;
60610;SDS011;46439;51.164;13.572;2023-12-20T00:06:05;4.20;;;3.00;;
60610;SDS011;46439;51.164;13.572;2023-12-20T00:08:33;3.70;;;3.00;;
60610;SDS011;46439;51.164;13.572;2023-12-20T00:11:01;4.50;;;3.00;;
60610;SDS011;46439;51.164;13.572;2023-12-20T00:13:29;4.00;;;2.60;;
60610;SDS011;46439;51.164;13.572;2023-12-20T00:15:57;3.60;;;2.80;;
60610;SDS011;46439;51.164;13.572;2023-12-20T00:18:25;4.40;;;2.90;;
60610;SDS011;46439;51.164;13.572;2023-12-20T00:20:54;5.30;;;2.90;;
60610;SDS011;46439;51.164;13.572;2023-12-20T00:23:22;5.70;;;2.60;;
60610;SDS011;46439;51.164;13.572;2023-12-20T00:25:50;3.70;;;2.70;;
60610;SDS011;46439;51.164;13.572;2023-12-20T00:28:19;4.50;;;2.30;;
60610;SDS011;46439;51.164;13.572;2023-12-20T00:30:47;4.10;;;2.80;;
60610;SDS011;46439;51.164;13.572;2023-12-20T00:33:16;3.50;;;2.40;;
60610;SDS011;46439;51.164;13.572;2023-12-20T00:35:44;3.20;;;2.50;;
60610;SDS011;46439;51.164;13.572;2023-12-20T00:38:12;4.40;;;2.30;;
60610;SDS011;46439;51.164;13.572;2023-12-20T00:40:41;2.80;;;2.20;;
60610;SDS011;46439;51.164;13.572;2023-12-20T00:43:09;3.00;;;2.20;;
60610;SDS011;46439;51.164;13.572;2023-12-20T00:45:37;2.40;;;2.20;;
60610;SDS011;46439;51.164;13.572;2023-12-20T00:48:06;2.40;;;2.20;;
60610;SDS011;46439;51.164;13.572;2023-12-20T00:50:34;3.20;;;2.30;;
60610;SDS011;46439;51.164;13.572;2023-12-20T00:53:17;2.80;;;2.40;;
60610;SDS011;46439;51.164;13.572;2023-12-20T00:55:45;3.10;;;2.30;;
60610;SDS011;46439;51.164;13.572;2023-12-20T00:58:14;2.80;;;2.20;;
60610;SDS011;46439;51.164;13.572;2023-12-20T01:00:42;3.70;;;2.60;;
60610;SDS011;46439;51.164;13.572;2023-12-20T01:03:10;5.90;;;3.30;;
60610;SDS011;46439;51.164;13.572;2023-12-20T01:05:38;5.50;;;3.80;;
60610;SDS011;46439;51.164;13.572;2023-12-20T01:08:07;3.70;;;2.50;;
60610;SDS011;46439;51.164;13.572;2023-12-20T01:10:35;7.20;;;4.00;;
60610;SDS011;46439;51.164;13.572;2023-12-20T01:13:03;7.30;;;4.00;;
60610;SDS011;46439;51.164;13.572;2023-12-20T01:15:31;11.10;;;5.40;;
60610;SDS011;46439;51.164;13.572;2023-12-20T01:17:59;5.90;;;3.20;;
60610;SDS011;46439;51.164;13.572;2023-12-20T01:20:28;3.50;;;2.40;;
60610;SDS011;46439;51.164;13.572;2023-12-20T01:22:56;2.50;;;2.00;;
60610;SDS011;46439;51.164;13.572;2023-12-20T01:25:24;5.90;;;3.20;;
60610;SDS011;46439;51.164;13.572;2023-12-20T01:27:52;6.90;;;3.80;;
60610;SDS011;46439;51.164;13.572;2023-12-20T01:30:20;4.20;;;2.90;;
60610;SDS011;46439;51.164;13.572;2023-12-20T01:32:48;3.00;;;2.20;;
60610;SDS011;46439;51.164;13.572;2023-12-20T01:35:16;3.70;;;1.90;;
60610;SDS011;46439;51.164;13.572;2023-12-20T01:37:44;2.60;;;2.00;;
60610;SDS011;46439;51.164;13.572;2023-12-20T01:40:13;2.80;;;2.00;;
60610;SDS011;46439;51.164;13.572;2023-12-20T01:42:41;2.10;;;1.70;;
60610;SDS011;46439;51.164;13.572;2023-12-20T01:45:10;2.40;;;1.70;;
60610;SDS011;46439;51.164;13.572;2023-12-20T01:47:38;1.60;;;1.50;;
60610;SDS011;46439;51.164;13.572;2023-12-20T01:50:07;1.50;;;1.40;;
60610;SDS011;46439;51.164;13.572;2023-12-20T01:52:36;1.60;;;1.50;;
60610;SDS011;46439;51.164;13.572;2023-12-20T01:55:05;1.50;;;1.40;;
60610;SDS011;46439;51.164;13.572;2023-12-20T01:57:39;1.50;;;1.40;;
60610;SDS011;46439;51.164;13.572;2023-12-20T02:00:10;1.40;;;1.30;;
60610;SDS011;46439;51.164;13.572;2023-12-20T02:02:41;1.30;;;1.20;;
60610;SDS011;46439;51.164;13.572;2023-12-20T02:05:09;1.60;;;1.40;;
60610;SDS011;46439;51.164;13.572;2023-12-20T02:07:37;1.90;;;1.50;;
60610;SDS011;46439;51.164;13.572;2023-12-20T02:10:06;1.60;;;1.50;;
60610;SDS011;46439;51.164;13.572;2023-12-20T02:12:35;1.40;;;1.20;;
60610;SDS011;46439;51.164;13.572;2023-12-20T02:15:04;1.40;;;1.30;;
60610;SDS011;46439;51.164;13.572;2023-12-20T02:17:33;1.30;;;1.20;;
60610;SDS011;46439;51.164;13.572;2023-12-20T02:20:09;1.40;;;1.20;;
60610;SDS011;46439;51.164;13.572;2023-12-20T02:22:38;1.10;;;1.10;;
60610;SDS011;46439;51.164;13.572;2023-12-20T02:25:06;1.50;;;1.10;;
60610;SDS011;46439;51.164;13.572;2023-12-20T02:27:35;1.10;;;1.10;;
60610;SDS011;46439;51.164;13.572;2023-12-20T02:30:04;1.30;;;1.20;;
60610;SDS011;46439;51.164;13.572;2023-12-20T02:32:34;1.20;;;1.10;;
60610;SDS011;46439;51.164;13.572;2023-12-20T02:35:02;1.10;;;1.00;;
60610;SDS011;46439;51.164;13.572;2023-12-20T02:37:31;1.70;;;1.10;;
60610;SDS011;46439;51.164;13.572;2023-12-20T02:40:00;1.10;;;1.00;;
60610;SDS011;46439;51.164;13.572;2023-12-20T02:42:30;1.20;;;1.10;;
60610;SDS011;46439;51.164;13.572;2023-12-20T02:44:58;0.90;;;0.90;;
60610;SDS011;46439;51.164;13.572;2023-12-20T02:47:26;1.30;;;1.10;;
60610;SDS011;46439;51.164;13.572;2023-12-20T02:49:56;2.20;;;1.10;;
60610;SDS011;46439;51.164;13.572;2023-12-20T02:52:24;1.00;;;1.00;;
60610;SDS011;46439;51.164;13.572;2023-12-20T02:54:54;2.00;;;1.20;;
60610;SDS011;46439;51.164;13.572;2023-12-20T02:57:22;1.10;;;1.10;;
60610;SDS011;46439;51.164;13.572;2023-12-20T02:59:50;1.00;;;1.00;;
60610;SDS011;46439;51.164;13.572;2023-12-20T03:02:18;1.00;;;1.00;;
60610;SDS011;46439;51.164;13.572;2023-12-20T03:04:46;1.00;;;1.00;;
60610;SDS011;46439;51.164;13.572;2023-12-20T03:07:14;1.20;;;1.10;;
60610;SDS011;46439;51.164;13.572;2023-12-20T03:09:42;1.20;;;1.10;;
60610;SDS011;46439;51.164;13.572;2023-12-20T03:12:11;1.00;;;0.90;;
60610;SDS011;46439;51.164;13.572;2023-12-20T03:14:39;1.40;;;1.20;;
60610;SDS011;46439;51.164;13.572;2023-12-20T03:17:07;1.10;;;1.10;;
60610;SDS011;46439;51.164;13.572;2023-12-20T03:19:35;1.00;;;1.00;;
60610;SDS011;46439;51.164;13.572;2023-12-20T03:22:03;1.40;;;1.10;;
60610;SDS011;46439;51.164;13.572;2023-12-20T03:24:31;0.90;;;0.90;;
60610;SDS011;46439;51.164;13.572;2023-12-20T03:26:59;1.90;;;1.10;;
60610;SDS011;46439;51.164;13.572;2023-12-20T03:29:27;1.10;;;1.00;;
60610;SDS011;46439;51.164;13.572;2023-12-20T03:31:55;0.80;;;0.80;;
60610;SDS011;46439;51.164;13.572;2023-12-20T03:34:23;1.20;;;1.10;;
60610;SDS011;46439;51.164;13.572;2023-12-20T03:36:52;5.40;;;1.10;;
60610;SDS011;46439;51.164;13.572;2023-12-20T03:39:20;1.10;;;1.10;;
60610;SDS011;46439;51.164;13.572;2023-12-20T03:41:49;1.20;;;1.10;;
60610;SDS011;46439;51.164;13.572;2023-12-20T03:44:17;1.50;;;1.00;;
60610;SDS011;46439;51.164;13.572;2023-12-20T03:46:45;1.80;;;1.10;;
60610;SDS011;46439;51.164;13.572;2023-12-20T03:49:14;0.90;;;0.90;;
60610;SDS011;46439;51.164;13.572;2023-12-20T03:51:42;1.70;;;1.00;;
60610;SDS011;46439;51.164;13.572;2023-12-20T03:54:10;0.90;;;0.90;;
60610;SDS011;46439;51.164;13.572;2023-12-20T03:56:38;0.90;;;0.90;;
60610;SDS011;46439;51.164;13.572;2023-12-20T03:59:06;0.90;;;0.80;;
60610;SDS011;46439;51.164;13.572;2023-12-20T04:01:34;1.20;;;1.10;;
60610;SDS011;46439;51.164;13.572;2023-12-20T04:04:02;1.30;;;1.20;;
60610;SDS011;46439;51.164;13.572;2023-12-20T04:06:30;1.50;;;1.00;;
60610;SDS011;46439;51.164;13.572;2023-12-20T04:08:58;0.90;;;0.90;;
60610;SDS011;46439;51.164;13.572;2023-12-20T04:11:26;1.50;;;1.20;;
60610;SDS011;46439;51.164;13.572;2023-12-20T04:13:55;1.10;;;1.10;;
60610;SDS011;46439;51.164;13.572;2023-12-20T04:16:23;1.00;;;1.00;;
60610;SDS011;46439;51.164;13.572;2023-12-20T04:18:51;1.40;;;1.30;;
60610;SDS011;46439;51.164;13.572;2023-12-20T04:21:19;1.30;;;1.20;;
60610;SDS011;46439;51.164;13.572;2023-12-20T04:23:47;1.00;;;1.00;;
60610;SDS011;46439;51.164;13.572;2023-12-20T04:26:15;1.50;;;1.40;;
60610;SDS011;46439;51.164;13.572;2023-12-20T04:28:43;1.60;;;1.30;;
60610;SDS011;46439;51.164;13.572;2023-12-20T04:31:11;1.60;;;1.50;;
60610;SDS011;46439;51.164;13.572;2023-12-20T04:33:40;2.00;;;1.50;;
60610;SDS011;46439;51.164;13.572;2023-12-20T04:36:08;2.00;;;1.50;;
60610;SDS011;46439;51.164;13.572;2023-12-20T04:38:36;2.50;;;2.00;;
60610;SDS011;46439;51.164;13.572;2023-12-20T04:41:04;2.90;;;2.10;;
60610;SDS011;46439;51.164;13.572;2023-12-20T04:43:32;4.20;;;2.80;;
60610;SDS011;46439;51.164;13.572;2023-12-20T04:46:00;5.10;;;3.10;;
60610;SDS011;46439;51.164;13.572;2023-12-20T04:48:29;2.90;;;2.20;;
60610;SDS011;46439;51.164;13.572;2023-12-20T04:50:57;2.90;;;1.90;;
60610;SDS011;46439;51.164;13.572;2023-12-20T04:53:25;1.50;;;1.40;;
60610;SDS011;46439;51.164;13.572;2023-12-20T04:55:54;2.00;;;1.70;;
60610;SDS011;46439;51.164;13.572;2023-12-20T04:58:22;1.50;;;1.40;;
60610;SDS011;46439;51.164;13.572;2023-12-20T05:00:50;1.10;;;1.10;;
60610;SDS011;46439;51.164;13.572;2023-12-20T05:03:18;2.00;;;1.20;;
60610;SDS011;46439;51.164;13.572;2023-12-20T05:05:47;2.60;;;1.80;;
60610;SDS011;46439;51.164;13.572;2023-12-20T05:11:19;1.10;;;1.10;;
60610;SDS011;46439;51.164;13.572;2023-12-20T05:13:47;2.60;;;1.10;;
60610;SDS011;46439;51.164;13.572;2023-12-20T05:16:15;1.40;;;1.20;;
60610;SDS011;46439;51.164;13.572;2023-12-20T05:18:46;1.50;;;1.40;;
60610;SDS011;46439;51.164;13.572;2023-12-20T05:21:16;3.60;;;2.00;;
60610;SDS011;46439;51.164;13.572;2023-12-20T05:23:45;2.60;;;1.60;;
60610;SDS011;46439;51.164;13.572;2023-12-20T05:26:13;6.50;;;3.40;;
60610;SDS011;46439;51.164;13.572;2023-12-20T05:28:41;14.90;;;7.00;;
60610;SDS011;46439;51.164;13.572;2023-12-20T05:31:09;7.40;;;4.40;;
60610;SDS011;46439;51.164;13.572;2023-12-20T05:33:37;9.90;;;5.70;;
60610;SDS011;46439;51.164;13.572;2023-12-20T05:36:05;11.90;;;7.30;;
60610;SDS011;46439;51.164;13.572;2023-12-20T05:38:37;6.60;;;3.80;;
60610;SDS011;46439;51.164;13.572;2023-12-20T05:41:05;2.80;;;2.00;;
60610;SDS011;46439;51.164;13.572;2023-12-20T05:43:33;2.40;;;2.00;;
60610;SDS011;46439;51.164;13.572;2023-12-20T05:46:02;2.10;;;1.90;;
60610;SDS011;46439;51.164;13.572;2023-12-20T05:48:30;3.40;;;1.90;;
60610;SDS011;46439;51.164;13.572;2023-12-20T05:50:58;2.40;;;2.00;;
60610;SDS011;46439;51.164;13.572;2023-12-20T05:53:26;1.50;;;1.40;;
60610;SDS011;46439;51.164;13.572;2023-12-20T05:55:54;1.40;;;1.30;;
60610;SDS011;46439;51.164;13.572;2023-12-20T05:58:22;1.10;;;1.10;;
60610;SDS011;46439;51.164;13.572;2023-12-20T06:00:50;0.90;;;0.80;;
60610;SDS011;46439;51.164;13.572;2023-12-20T06:03:19;0.90;;;0.90;;
60610;SDS011;46439;51.164;13.572;2023-12-20T06:05:47;1.00;;;1.00;;
60610;SDS011;46439;51.164;13.572;2023-12-20T06:08:15;1.30;;;0.90;;
60610;SDS011;46439;51.164;13.572;2023-12-20T06:10:43;1.00;;;1.00;;
60610;SDS011;46439;51.164;13.572;2023-12-20T06:13:11;1.00;;;1.00;;
60610;SDS011;46439;51.164;13.572;2023-12-20T06:15:40;1.60;;;0.80;;
60610;SDS011;46439;51.164;13.572;2023-12-20T06:18:08;1.40;;;1.30;;
60610;SDS011;46439;51.164;13.572;2023-12-20T06:20:36;3.10;;;2.20;;
60610;SDS011;46439;51.164;13.572;2023-12-20T06:23:04;2.00;;;1.40;;
60610;SDS011;46439;51.164;13.572;2023-12-20T06:25:32;7.90;;;4.40;;
60610;SDS011;46439;51.164;13.572;2023-12-20T06:28:00;11.30;;;6.10;;
60610;SDS011;46439;51.164;13.572;2023-12-20T06:30:29;4.30;;;3.00;;
60610;SDS011;46439;51.164;13.572;2023-12-20T06:32:59;2.10;;;1.90;;
60610;SDS011;46439;51.164;13.572;2023-12-20T06:35:27;3.40;;;1.80;;
60610;SDS011;46439;51.164;13.572;2023-12-20T06:37:55;2.70;;;2.20;;
60610;SDS011;46439;51.164;13.572;2023-12-20T06:40:24;2.90;;;1.70;;
60610;SDS011;46439;51.164;13.572;2023-12-20T06:42:52;3.20;;;2.20;;
60610;SDS011;46439;51.164;13.572;2023-12-20T06:45:20;3.00;;;1.70;;
60610;SDS011;46439;51.164;13.572;2023-12-20T06:47:49;2.40;;;1.90;;
60610;SDS011;46439;51.164;13.572;2023-12-20T06:50:17;2.80;;;1.90;;
60610;SDS011;46439;51.164;13.572;2023-12-20T06:52:45;3.00;;;2.20;;
60610;SDS011;46439;51.164;13.572;2023-12-20T06:55:13;2.00;;;1.70;;
60610;SDS011;46439;51.164;13.572;2023-12-20T06:57:41;9.20;;;3.90;;
60610;SDS011;46439;51.164;13.572;2023-12-20T07:00:10;2.10;;;1.90;;
60610;SDS011;46439;51.164;13.572;2023-12-20T07:02:39;2.00;;;1.90;;
60610;SDS011;46439;51.164;13.572;2023-12-20T07:05:08;6.50;;;4.60;;
60610;SDS011;46439;51.164;13.572;2023-12-20T07:07:36;7.70;;;4.40;;
60610;SDS011;46439;51.164;13.572;2023-12-20T07:10:05;7.80;;;4.50;;
60610;SDS011;46439;51.164;13.572;2023-12-20T07:12:34;10.20;;;6.80;;
60610;SDS011;46439;51.164;13.572;2023-12-20T07:15:02;4.10;;;3.10;;
60610;SDS011;46439;51.164;13.572;2023-12-20T07:20:01;6.80;;;3.00;;
60610;SDS011;46439;51.164;13.572;2023-12-20T07:22:30;2.80;;;2.30;;
60610;SDS011;46439;51.164;13.572;2023-12-20T07:24:58;5.30;;;3.60;;
60610;SDS011;46439;51.164;13.572;2023-12-20T07:27:27;4.60;;;3.80;;
60610;SDS011;46439;51.164;13.572;2023-12-20T07:29:55;6.60;;;3.60;;
60610;SDS011;46439;51.164;13.572;2023-12-20T07:32:23;6.10;;;4.00;;
60610;SDS011;46439;51.164;13.572;2023-12-20T07:34:51;10.70;;;6.30;;
60610;SDS011;46439;51.164;13.572;2023-12-20T07:37:21;7.50;;;5.00;;
60610;SDS011;46439;51.164;13.572;2023-12-20T07:39:49;3.40;;;2.70;;
60610;SDS011;46439;51.164;13.572;2023-12-20T07:42:17;6.50;;;4.40;;
60610;SDS011;46439;51.164;13.572;2023-12-20T07:44:45;4.70;;;3.20;;
60610;SDS011;46439;51.164;13.572;2023-12-20T07:47:13;4.50;;;2.50;;
60610;SDS011;46439;51.164;13.572;2023-12-20T07:49:44;3.20;;;2.50;;
60610;SDS011;46439;51.164;13.572;2023-12-20T07:52:12;4.40;;;2.50;;
60610;SDS011;46439;51.164;13.572;2023-12-20T07:54:41;3.30;;;2.60;;
60610;SDS011;46439;51.164;13.572;2023-12-20T07:57:09;3.80;;;2.70;;
60610;SDS011;46439;51.164;13.572;2023-12-20T07:59:37;5.10;;;2.60;;
60610;SDS011;46439;51.164;13.572;2023-12-20T08:02:06;2.70;;;2.40;;
60610;SDS011;46439;51.164;13.572;2023-12-20T08:04:34;2.40;;;2.20;;
60610;SDS011;46439;51.164;13.572;2023-12-20T08:07:02;3.00;;;2.30;;
60610;SDS011;46439;51.164;13.572;2023-12-20T08:09:31;4.10;;;2.70;;
60610;SDS011;46439;51.164;13.572;2023-12-20T08:12:00;4.10;;;2.50;;
60610;SDS011;46439;51.164;13.572;2023-12-20T08:14:29;4.40;;;2.50;;
60610;SDS011;46439;51.164;13.572;2023-12-20T08:16:58;4.10;;;2.60;;
60610;SDS011;46439;51.164;13.572;2023-12-20T08:19:26;4.20;;;2.50;;
60610;SDS011;46439;51.164;13.572;2023-12-20T08:21:54;3.60;;;2.20;;
60610;SDS011;46439;51.164;13.572;2023-12-20T08:24:22;4.40;;;2.60;;
60610;SDS011;46439;51.164;13.572;2023-12-20T08:26:50;3.20;;;2.00;;
60610;SDS011;46439;51.164;13.572;2023-12-20T08:29:19;4.00;;;2.60;;
60610;SDS011;46439;51.164;13.572;2023-12-20T08:31:47;6.80;;;2.80;;
60610;SDS011;46439;51.164;13.572;2023-12-20T08:34:20;5.00;;;2.00;;
60610;SDS011;46439;51.164;13.572;2023-12-20T08:36:50;3.50;;;2.10;;
60610;SDS011;46439;51.164;13.572;2023-12-20T08:39:18;2.60;;;1.70;;
60610;SDS011;46439;51.164;13.572;2023-12-20T08:41:46;2.80;;;1.90;;
60610;SDS011;46439;51.164;13.572;2023-12-20T08:44:14;6.40;;;2.10;;
60610;SDS011;46439;51.164;13.572;2023-12-20T08:46:42;6.80;;;1.90;;
60610;SDS011;46439;51.164;13.572;2023-12-20T08:49:10;2.70;;;1.80;;
60610;SDS011;46439;51.164;13.572;2023-12-20T08:51:39;2.30;;;1.70;;
60610;SDS011;46439;51.164;13.572;2023-12-20T08:54:07;3.10;;;1.70;;
60610;SDS011;46439;51.164;13.572;2023-12-20T08:56:35;3.00;;;1.80;;
60610;SDS011;46439;51.164;13.572;2023-12-20T08:59:03;5.60;;;1.80;;
60610;SDS011;46439;51.164;13.572;2023-12-20T09:01:32;4.70;;;1.90;;
60610;SDS011;46439;51.164;13.572;2023-12-20T09:04:00;3.40;;;1.80;;
60610;SDS011;46439;51.164;13.572;2023-12-20T09:06:28;3.20;;;1.60;;
60610;SDS011;46439;51.164;13.572;2023-12-20T09:08:56;5.80;;;1.90;;
60610;SDS011;46439;51.164;13.572;2023-12-20T09:11:24;4.00;;;1.80;;
60610;SDS011;46439;51.164;13.572;2023-12-20T09:13:52;5.60;;;1.60;;
60610;SDS011;46439;51.164;13.572;2023-12-20T09:16:20;4.20;;;1.90;;
60610;SDS011;46439;51.164;13.572;2023-12-20T09:18:48;3.30;;;1.50;;
60610;SDS011;46439;51.164;13.572;2023-12-20T09:21:18;3.90;;;1.40;;
60610;SDS011;46439;51.164;13.572;2023-12-20T09:23:46;5.00;;;1.60;;
60610;SDS011;46439;51.164;13.572;2023-12-20T09:26:14;11.50;;;5.00;;
60610;SDS011;46439;51.164;13.572;2023-12-20T09:28:42;7.80;;;2.70;;
60610;SDS011;46439;51.164;13.572;2023-12-20T09:31:10;5.30;;;2.60;;
60610;SDS011;46439;51.164;13.572;2023-12-20T09:33:38;8.80;;;4.60;;
60610;SDS011;46439;51.164;13.572;2023-12-20T09:36:08;7.50;;;3.60;;
60610;SDS011;46439;51.164;13.572;2023-12-20T09:38:36;5.90;;;1.80;;
60610;SDS011;46439;51.164;13.572;2023-12-20T09:41:04;3.40;;;1.60;;
60610;SDS011;46439;51.164;13.572;2023-12-20T09:43:32;3.30;;;1.70;;
60610;SDS011;46439;51.164;13.572;2023-12-20T09:46:05;1.80;;;1.30;;
60610;SDS011;46439;51.164;13.572;2023-12-20T09:48:34;6.10;;;2.00;;
60610;SDS011;46439;51.164;13.572;2023-12-20T09:51:03;4.60;;;1.90;;
60610;SDS011;46439;51.164;13.572;2023-12-20T09:53:31;3.20;;;1.60;;
60610;SDS011;46439;51.164;13.572;2023-12-20T09:56:04;4.00;;;1.90;;
60610;SDS011;46439;51.164;13.572;2023-12-20T09:58:35;3.80;;;1.50;;
60610;SDS011;46439;51.164;13.572;2023-12-20T10:01:05;5.20;;;1.60;;
60610;SDS011;46439;51.164;13.572;2023-12-20T10:03:34;3.80;;;1.70;;
60610;SDS011;46439;51.164;13.572;2023-12-20T10:06:07;6.50;;;1.70;;
60610;SDS011;46439;51.164;13.572;2023-12-20T10:08:35;2.20;;;1.30;;
60610;SDS011;46439;51.164;13.572;2023-12-20T10:11:03;2.40;;;1.30;;
60610;SDS011;46439;51.164;13.572;2023-12-20T10:13:32;4.70;;;1.60;;
60610;SDS011;46439;51.164;13.572;2023-12-20T10:16:00;4.00;;;1.60;;
60610;SDS011;46439;51.164;13.572;2023-12-20T10:18:29;2.80;;;1.40;;
60610;SDS011;46439;51.164;13.572;2023-12-20T10:20:58;3.50;;;1.60;;
60610;SDS011;46439;51.164;13.572;2023-12-20T10:23:33;7.20;;;2.00;;
60610;SDS011;46439;51.164;13.572;2023-12-20T10:26:02;4.00;;;1.70;;
60610;SDS011;46439;51.164;13.572;2023-12-20T10:28:33;5.90;;;1.70;;
60610;SDS011;46439;51.164;13.572;2023-12-20T10:31:02;5.20;;;1.90;;
60610;SDS011;46439;51.164;13.572;2023-12-20T10:33:30;5.00;;;1.60;;
60610;SDS011;46439;51.164;13.572;2023-12-20T10:35:59;2.30;;;1.60;;
60610;SDS011;46439;51.164;13.572;2023-12-20T10:38:27;7.00;;;1.60;;
60610;SDS011;46439;51.164;13.572;2023-12-20T10:40:57;2.40;;;1.30;;
60610;SDS011;46439;51.164;13.572;2023-12-20T10:43:27;5.80;;;1.40;;
60610;SDS011;46439;51.164;13.572;2023-12-20T10:45:56;5.30;;;1.80;;
60610;SDS011;46439;51.164;13.572;2023-12-20T10:48:25;4.50;;;1.50;;
60610;SDS011;46439;51.164;13.572;2023-12-20T10:50:56;4.50;;;1.50;;
60610;SDS011;46439;51.164;13.572;2023-12-20T10:53:26;3.10;;;1.40;;
60610;SDS011;46439;51.164;13.572;2023-12-20T10:55:55;3.50;;;1.70;;
60610;SDS011;46439;51.164;13.572;2023-12-20T10:58:26;6.80;;;1.70;;
60610;SDS011;46439;51.164;13.572;2023-12-20T11:00:57;5.10;;;1.80;;
60610;SDS011;46439;51.164;13.572;2023-12-20T11:03:34;5.40;;;1.50;;
60610;SDS011;46439;51.164;13.572;2023-12-20T11:06:15;4.00;;;2.10;;
60610;SDS011;46439;51.164;13.572;2023-12-20T11:08:54;4.70;;;2.50;;
60610;SDS011;46439;51.164;13.572;2023-12-20T11:11:45;9.30;;;2.70;;
60610;SDS011;46439;51.164;13.572;2023-12-20T11:14:27;10.00;;;3.90;;
60610;SDS011;46439;51.164;13.572;2023-12-20T11:19:44;10.10;;;2.80;;
60610;SDS011;46439;51.164;13.572;2023-12-20T11:22:32;7.50;;;2.10;;
60610;SDS011;46439;51.164;13.572;2023-12-20T11:25:03;4.50;;;1.90;;
60610;SDS011;46439;51.164;13.572;2023-12-20T11:27:36;5.20;;;1.60;;
60610;SDS011;46439;51.164;13.572;2023-12-20T11:30:10;5.10;;;1.70;;
60610;SDS011;46439;51.164;13.572;2023-12-20T11:32:40;6.00;;;2.10;;
60610;SDS011;46439;51.164;13.572;2023-12-20T11:35:19;2.20;;;1.40;;
60610;SDS011;46439;51.164;13.572;2023-12-20T11:37:47;4.50;;;1.60;;
60610;SDS011;46439;51.164;13.572;2023-12-20T11:40:17;2.20;;;1.40;;
60610;SDS011;46439;51.164;13.572;2023-12-20T11:42:49;6.40;;;2.00;;
60610;SDS011;46439;51.164;13.572;2023-12-20T11:45:21;4.80;;;1.70;;
60610;SDS011;46439;51.164;13.572;2023-12-20T11:47:52;3.70;;;1.80;;
60610;SDS011;46439;51.164;13.572;2023-12-20T11:50:21;3.50;;;1.70;;
60610;SDS011;46439;51.164;13.572;2023-12-20T11:52:51;4.40;;;1.70;;
60610;SDS011;46439;51.164;13.572;2023-12-20T11:55:20;3.80;;;1.80;;
60610;SDS011;46439;51.164;13.572;2023-12-20T11:57:50;4.00;;;1.90;;
60610;SDS011;46439;51.164;13.572;2023-12-20T12:00:19;6.20;;;2.00;;
60610;SDS011;46439;51.164;13.572;2023-12-20T12:02:57;5.10;;;2.00;;
60610;SDS011;46439;51.164;13.572;2023-12-20T12:05:25;5.40;;;2.20;;
60610;SDS011;46439;51.164;13.572;2023-12-20T12:07:54;5.60;;;1.70;;
60610;SDS011;46439;51.164;13.572;2023-12-20T12:10:22;6.90;;;2.40;;
60610;SDS011;46439;51.164;13.572;2023-12-20T12:12:50;5.80;;;1.70;;
60610;SDS011;46439;51.164;13.572;2023-12-20T12:15:19;3.30;;;1.70;;
60610;SDS011;46439;51.164;13.572;2023-12-20T12:17:53;5.50;;;1.90;;
60610;SDS011;46439;51.164;13.572;2023-12-20T12:20:22;4.40;;;1.70;;
60610;SDS011;46439;51.164;13.572;2023-12-20T12:22:58;4.80;;;1.60;;
60610;SDS011;46439;51.164;13.572;2023-12-20T12:25:28;3.30;;;1.60;;
60610;SDS011;46439;51.164;13.572;2023-12-20T12:27:57;4.50;;;1.50;;
60610;SDS011;46439;51.164;13.572;2023-12-20T12:30:26;8.10;;;1.70;;
60610;SDS011;46439;51.164;13.572;2023-12-20T12:32:55;5.40;;;1.50;;
60610;SDS011;46439;51.164;13.572;2023-12-20T12:35:27;4.00;;;1.50;;
60610;SDS011;46439;51.164;13.572;2023-12-20T12:37:55;3.60;;;1.30;;
60610;SDS011;46439;51.164;13.572;2023-12-20T12:40:25;8.20;;;1.70;;
60610;SDS011;46439;51.164;13.572;2023-12-20T12:42:53;4.70;;;1.40;;
60610;SDS011;46439;51.164;13.572;2023-12-20T12:45:21;3.80;;;1.70;;
60610;SDS011;46439;51.164;13.572;2023-12-20T12:47:51;5.60;;;1.50;;
60610;SDS011;46439;51.164;13.572;2023-12-20T12:50:21;5.30;;;1.40;;
60610;SDS011;46439;51.164;13.572;2023-12-20T12:52:49;4.10;;;1.70;;
60610;SDS011;46439;51.164;13.572;2023-12-20T12:55:17;4.00;;;1.50;;
60610;SDS011;46439;51.164;13.572;2023-12-20T12:57:45;5.80;;;1.80;;
60610;SDS011;46439;51.164;13.572;2023-12-20T13:00:14;10.10;;;2.20;;
60610;SDS011;46439;51.164;13.572;2023-12-20T13:02:42;6.50;;;1.60;;
60610;SDS011;46439;51.164;13.572;2023-12-20T13:05:11;4.70;;;1.40;;
60610;SDS011;46439;51.164;13.572;2023-12-20T13:07:39;5.90;;;1.80;;
60610;SDS011;46439;51.164;13.572;2023-12-20T13:10:11;5.30;;;1.70;;
60610;SDS011;46439;51.164;13.572;2023-12-20T13:12:43;3.70;;;1.40;;
60610;SDS011;46439;51.164;13.572;2023-12-20T13:15:11;3.00;;;1.30;;
60610;SDS011;46439;51.164;13.572;2023-12-20T13:17:40;3.60;;;1.50;;
60610;SDS011;46439;51.164;13.572;2023-12-20T13:20:09;3.60;;;1.50;;
60610;SDS011;46439;51.164;13.572;2023-12-20T13:22:37;5.80;;;1.90;;
60610;SDS011;46439;51.164;13.572;2023-12-20T13:25:06;4.10;;;1.60;;
60610;SDS011;46439;51.164;13.572;2023-12-20T13:27:35;3.50;;;1.40;;
60610;SDS011;46439;51.164;13.572;2023-12-20T13:30:04;4.60;;;1.80;;
60610;SDS011;46439;51.164;13.572;2023-12-20T13:32:34;5.70;;;1.70;;
60610;SDS011;46439;51.164;13.572;2023-12-20T13:35:02;5.50;;;1.50;;
60610;SDS011;46439;51.164;13.572;2023-12-20T13:37:31;6.40;;;1.60;;
60610;SDS011;46439;51.164;13.572;2023-12-20T13:39:59;4.50;;;1.50;;
60610;SDS011;46439;51.164;13.572;2023-12-20T13:42:29;7.20;;;2.10;;
60610;SDS011;46439;51.164;13.572;2023-12-20T13:44:57;6.00;;;1.50;;
60610;SDS011;46439;51.164;13.572;2023-12-20T13:47:25;3.80;;;1.80;;
60610;SDS011;46439;51.164;13.572;2023-12-20T13:49:54;4.70;;;1.40;;
60610;SDS011;46439;51.164;13.572;2023-12-20T13:52:22;4.70;;;1.60;;
60610;SDS011;46439;51.164;13.572;2023-12-20T13:54:50;3.30;;;1.40;;
60610;SDS011;46439;51.164;13.572;2023-12-20T13:57:19;3.40;;;1.30;;
60610;SDS011;46439;51.164;13.572;2023-12-20T13:59:47;3.90;;;1.90;;
60610;SDS011;46439;51.164;13.572;2023-12-20T14:02:15;3.20;;;1.50;;
60610;SDS011;46439;51.164;13.572;2023-12-20T14:04:43;4.10;;;1.30;;
60610;SDS011;46439;51.164;13.572;2023-12-20T14:07:12;2.20;;;1.20;;
60610;SDS011;46439;51.164;13.572;2023-12-20T14:09:40;3.20;;;1.40;;
60610;SDS011;46439;51.164;13.572;2023-12-20T14:12:12;3.40;;;1.40;;
60610;SDS011;46439;51.164;13.572;2023-12-20T14:14:40;4.70;;;1.60;;
60610;SDS011;46439;51.164;13.572;2023-12-20T14:17:08;5.80;;;1.50;;
60610;SDS011;46439;51.164;13.572;2023-12-20T14:19:36;4.10;;;1.50;;
60610;SDS011;46439;51.164;13.572;2023-12-20T14:22:06;1.90;;;1.10;;
60610;SDS011;46439;51.164;13.572;2023-12-20T14:24:34;2.60;;;1.30;;
60610;SDS011;46439;51.164;13.572;2023-12-20T14:27:03;4.70;;;1.50;;
60610;SDS011;46439;51.164;13.572;2023-12-20T14:29:31;3.50;;;1.40;;
60610;SDS011;46439;51.164;13.572;2023-12-20T14:31:59;3.70;;;1.40;;
60610;SDS011;46439;51.164;13.572;2023-12-20T14:34:29;3.90;;;1.20;;
60610;SDS011;46439;51.164;13.572;2023-12-20T14:36:57;2.10;;;1.40;;
60610;SDS011;46439;51.164;13.572;2023-12-20T14:39:25;3.80;;;1.30;;
60610;SDS011;46439;51.164;13.572;2023-12-20T14:41:53;4.20;;;1.20;;
60610;SDS011;46439;51.164;13.572;2023-12-20T14:44:22;3.60;;;1.40;;
60610;SDS011;46439;51.164;13.572;2023-12-20T14:46:50;3.80;;;1.40;;
60610;SDS011;46439;51.164;13.572;2023-12-20T14:49:18;2.00;;;1.30;;
60610;SDS011;46439;51.164;13.572;2023-12-20T14:51:46;4.90;;;1.40;;